sensor_id;sensor_type;location;lat;lon;timestamp;P1;durP1;ratioP1;P2;durP2;ratioP2
51578;SDS011;47998;53.242;6.386;2023-02-28T00:00:20;9.13;;;2.10;;
51578;SDS011;47998;53.242;6.386;2023-02-28T00:02:47;7.90;;;2.60;;
51578;SDS011;47998;53.242;6.386;2023-02-28T00:05:14;10.52;;;2.35;;
51578;SDS011;47998;53.242;6.386;2023-02-28T00:07:42;12.07;;;2.77;;
51578;SDS011;47998;53.242;6.386;2023-02-28T00:10:10;8.25;;;2.33;;
51578;SDS011;47998;53.242;6.386;2023-02-28T00:12:38;10.03;;;2.30;;
51578;SDS011;47998;53.242;6.386;2023-02-28T00:15:07;12.73;;;2.58;;
51578;SDS011;47998;53.242;6.386;2023-02-28T00:17:35;11.05;;;2.35;;
51578;SDS011;47998;53.242;6.386;2023-02-28T00:20:03;10.40;;;2.55;;
51578;SDS011;47998;53.242;6.386;2023-02-28T00:22:35;9.75;;;2.83;;
51578;SDS011;47998;53.242;6.386;2023-02-28T00:25:02;9.23;;;2.70;;
51578;SDS011;47998;53.242;6.386;2023-02-28T00:27:29;10.13;;;3.45;;
51578;SDS011;47998;53.242;6.386;2023-02-28T00:29:55;11.23;;;3.33;;
51578;SDS011;47998;53.242;6.386;2023-02-28T00:32:21;13.18;;;3.33;;
51578;SDS011;47998;53.242;6.386;2023-02-28T00:34:47;11.93;;;3.50;;
51578;SDS011;47998;53.242;6.386;2023-02-28T00:37:13;14.60;;;3.53;;
51578;SDS011;47998;53.242;6.386;2023-02-28T00:39:38;16.77;;;3.10;;
51578;SDS011;47998;53.242;6.386;2023-02-28T00:42:05;14.18;;;3.10;;
51578;SDS011;47998;53.242;6.386;2023-02-28T00:44:32;11.82;;;2.92;;
51578;SDS011;47998;53.242;6.386;2023-02-28T00:46:58;18.02;;;3.35;;
51578;SDS011;47998;53.242;6.386;2023-02-28T00:49:25;8.98;;;3.28;;
51578;SDS011;47998;53.242;6.386;2023-02-28T00:51:51;8.15;;;3.15;;
51578;SDS011;47998;53.242;6.386;2023-02-28T00:54:19;7.45;;;2.72;;
51578;SDS011;47998;53.242;6.386;2023-02-28T00:56:45;9.60;;;3.03;;
51578;SDS011;47998;53.242;6.386;2023-02-28T00:59:11;14.80;;;3.78;;
51578;SDS011;47998;53.242;6.386;2023-02-28T01:01:41;6.33;;;2.50;;
51578;SDS011;47998;53.242;6.386;2023-02-28T01:04:07;11.18;;;3.42;;
51578;SDS011;47998;53.242;6.386;2023-02-28T01:06:33;8.30;;;3.67;;
51578;SDS011;47998;53.242;6.386;2023-02-28T01:08:59;9.07;;;3.37;;
51578;SDS011;47998;53.242;6.386;2023-02-28T01:11:25;10.37;;;2.93;;
51578;SDS011;47998;53.242;6.386;2023-02-28T01:13:51;10.50;;;4.17;;
51578;SDS011;47998;53.242;6.386;2023-02-28T01:16:17;10.70;;;3.30;;
51578;SDS011;47998;53.242;6.386;2023-02-28T01:18:43;13.13;;;3.43;;
51578;SDS011;47998;53.242;6.386;2023-02-28T01:21:10;10.90;;;3.40;;
51578;SDS011;47998;53.242;6.386;2023-02-28T01:23:38;12.07;;;4.23;;
51578;SDS011;47998;53.242;6.386;2023-02-28T01:26:06;9.40;;;3.30;;
51578;SDS011;47998;53.242;6.386;2023-02-28T01:28:33;14.00;;;4.33;;
51578;SDS011;47998;53.242;6.386;2023-02-28T01:30:59;8.47;;;4.17;;
51578;SDS011;47998;53.242;6.386;2023-02-28T01:33:25;11.67;;;3.93;;
51578;SDS011;47998;53.242;6.386;2023-02-28T01:36:00;18.73;;;4.50;;
51578;SDS011;47998;53.242;6.386;2023-02-28T01:38:30;12.13;;;4.45;;
51578;SDS011;47998;53.242;6.386;2023-02-28T01:40:57;12.02;;;3.67;;
51578;SDS011;47998;53.242;6.386;2023-02-28T01:43:25;15.73;;;3.80;;
51578;SDS011;47998;53.242;6.386;2023-02-28T01:45:53;11.10;;;4.37;;
51578;SDS011;47998;53.242;6.386;2023-02-28T01:48:22;15.73;;;3.55;;
51578;SDS011;47998;53.242;6.386;2023-02-28T01:50:58;15.55;;;4.00;;
51578;SDS011;47998;53.242;6.386;2023-02-28T01:53:32;11.70;;;3.35;;
51578;SDS011;47998;53.242;6.386;2023-02-28T01:56:04;15.30;;;3.28;;
51578;SDS011;47998;53.242;6.386;2023-02-28T01:58:32;10.40;;;3.43;;
51578;SDS011;47998;53.242;6.386;2023-02-28T02:00:58;7.67;;;3.13;;
51578;SDS011;47998;53.242;6.386;2023-02-28T02:03:24;12.88;;;3.88;;
51578;SDS011;47998;53.242;6.386;2023-02-28T02:05:50;20.05;;;4.20;;
51578;SDS011;47998;53.242;6.386;2023-02-28T02:08:17;15.23;;;4.25;;
51578;SDS011;47998;53.242;6.386;2023-02-28T02:10:50;13.05;;;3.60;;
51578;SDS011;47998;53.242;6.386;2023-02-28T02:29:27;14.85;;;3.42;;
51578;SDS011;47998;53.242;6.386;2023-02-28T02:32:44;9.35;;;3.92;;
51578;SDS011;47998;53.242;6.386;2023-02-28T02:35:14;14.67;;;3.77;;
51578;SDS011;47998;53.242;6.386;2023-02-28T02:40:42;12.70;;;3.90;;
51578;SDS011;47998;53.242;6.386;2023-02-28T02:43:29;7.78;;;3.72;;
51578;SDS011;47998;53.242;6.386;2023-02-28T02:46:04;7.93;;;3.40;;
51578;SDS011;47998;53.242;6.386;2023-02-28T02:51:04;9.18;;;3.50;;
51578;SDS011;47998;53.242;6.386;2023-02-28T02:56:23;11.40;;;4.10;;
51578;SDS011;47998;53.242;6.386;2023-02-28T02:58:53;8.40;;;3.38;;
51578;SDS011;47998;53.242;6.386;2023-02-28T03:01:22;8.32;;;3.78;;
51578;SDS011;47998;53.242;6.386;2023-02-28T03:03:57;12.52;;;3.78;;
51578;SDS011;47998;53.242;6.386;2023-02-28T03:06:26;8.25;;;3.63;;
51578;SDS011;47998;53.242;6.386;2023-02-28T03:08:52;14.37;;;4.17;;
51578;SDS011;47998;53.242;6.386;2023-02-28T03:11:18;12.93;;;3.47;;
51578;SDS011;47998;53.242;6.386;2023-02-28T03:13:58;14.07;;;3.60;;
51578;SDS011;47998;53.242;6.386;2023-02-28T03:19:31;13.15;;;3.67;;
51578;SDS011;47998;53.242;6.386;2023-02-28T03:22:24;8.82;;;3.25;;
51578;SDS011;47998;53.242;6.386;2023-02-28T03:27:30;12.07;;;3.50;;
51578;SDS011;47998;53.242;6.386;2023-02-28T03:33:11;8.23;;;3.42;;
51578;SDS011;47998;53.242;6.386;2023-02-28T03:38:18;11.10;;;3.60;;
51578;SDS011;47998;53.242;6.386;2023-02-28T03:41:03;10.68;;;3.53;;
51578;SDS011;47998;53.242;6.386;2023-02-28T03:43:48;13.75;;;4.20;;
51578;SDS011;47998;53.242;6.386;2023-02-28T03:46:19;11.10;;;3.40;;
51578;SDS011;47998;53.242;6.386;2023-02-28T03:48:51;9.98;;;2.97;;
51578;SDS011;47998;53.242;6.386;2023-02-28T03:51:34;11.48;;;3.92;;
51578;SDS011;47998;53.242;6.386;2023-02-28T03:54:05;9.07;;;3.72;;
51578;SDS011;47998;53.242;6.386;2023-02-28T03:56:39;7.80;;;3.50;;
51578;SDS011;47998;53.242;6.386;2023-02-28T04:02:06;9.38;;;3.78;;
51578;SDS011;47998;53.242;6.386;2023-02-28T04:04:33;7.70;;;3.40;;
51578;SDS011;47998;53.242;6.386;2023-02-28T04:07:08;16.08;;;3.97;;
51578;SDS011;47998;53.242;6.386;2023-02-28T04:09:36;11.70;;;4.35;;
51578;SDS011;47998;53.242;6.386;2023-02-28T04:12:02;13.20;;;4.10;;
51578;SDS011;47998;53.242;6.386;2023-02-28T04:14:28;11.05;;;4.07;;
51578;SDS011;47998;53.242;6.386;2023-02-28T04:16:54;14.68;;;5.75;;
51578;SDS011;47998;53.242;6.386;2023-02-28T04:19:20;14.18;;;5.93;;
51578;SDS011;47998;53.242;6.386;2023-02-28T04:21:50;11.43;;;6.38;;
51578;SDS011;47998;53.242;6.386;2023-02-28T04:24:18;15.55;;;7.63;;
51578;SDS011;47998;53.242;6.386;2023-02-28T04:26:46;17.85;;;9.23;;
51578;SDS011;47998;53.242;6.386;2023-02-28T04:29:17;15.32;;;9.48;;
51578;SDS011;47998;53.242;6.386;2023-02-28T04:31:45;18.40;;;9.95;;
51578;SDS011;47998;53.242;6.386;2023-02-28T04:34:11;22.88;;;12.20;;
51578;SDS011;47998;53.242;6.386;2023-02-28T04:36:37;24.65;;;13.02;;
51578;SDS011;47998;53.242;6.386;2023-02-28T04:39:03;28.80;;;13.77;;
51578;SDS011;47998;53.242;6.386;2023-02-28T04:41:29;29.13;;;15.55;;
51578;SDS011;47998;53.242;6.386;2023-02-28T04:43:54;36.15;;;17.20;;
51578;SDS011;47998;53.242;6.386;2023-02-28T04:46:21;28.55;;;16.52;;
51578;SDS011;47998;53.242;6.386;2023-02-28T04:48:47;30.48;;;17.88;;
51578;SDS011;47998;53.242;6.386;2023-02-28T04:51:14;34.05;;;18.42;;
51578;SDS011;47998;53.242;6.386;2023-02-28T04:53:41;28.43;;;16.40;;
51578;SDS011;47998;53.242;6.386;2023-02-28T04:56:09;29.08;;;16.70;;
51578;SDS011;47998;53.242;6.386;2023-02-28T04:58:40;29.00;;;17.80;;
51578;SDS011;47998;53.242;6.386;2023-02-28T05:01:07;24.95;;;15.38;;
51578;SDS011;47998;53.242;6.386;2023-02-28T05:06:16;30.80;;;14.63;;
51578;SDS011;47998;53.242;6.386;2023-02-28T05:08:42;33.42;;;16.13;;
51578;SDS011;47998;53.242;6.386;2023-02-28T05:11:13;23.13;;;13.37;;
51578;SDS011;47998;53.242;6.386;2023-02-28T05:13:44;20.60;;;13.95;;
51578;SDS011;47998;53.242;6.386;2023-02-28T05:16:11;20.88;;;13.82;;
51578;SDS011;47998;53.242;6.386;2023-02-28T05:18:37;22.93;;;13.00;;
51578;SDS011;47998;53.242;6.386;2023-02-28T05:21:03;20.97;;;12.90;;
51578;SDS011;47998;53.242;6.386;2023-02-28T05:23:29;21.60;;;12.70;;
51578;SDS011;47998;53.242;6.386;2023-02-28T05:25:55;21.20;;;12.52;;
51578;SDS011;47998;53.242;6.386;2023-02-28T05:28:21;18.63;;;11.50;;
51578;SDS011;47998;53.242;6.386;2023-02-28T05:30:46;19.97;;;11.53;;
51578;SDS011;47998;53.242;6.386;2023-02-28T05:33:13;21.15;;;10.90;;
51578;SDS011;47998;53.242;6.386;2023-02-28T05:35:39;21.60;;;10.03;;
51578;SDS011;47998;53.242;6.386;2023-02-28T05:38:05;23.30;;;11.03;;
51578;SDS011;47998;53.242;6.386;2023-02-28T05:40:32;23.67;;;10.13;;
51578;SDS011;47998;53.242;6.386;2023-02-28T05:42:57;20.03;;;10.83;;
51578;SDS011;47998;53.242;6.386;2023-02-28T05:45:23;19.87;;;10.90;;
51578;SDS011;47998;53.242;6.386;2023-02-28T05:47:50;19.97;;;10.40;;
51578;SDS011;47998;53.242;6.386;2023-02-28T05:50:19;23.43;;;11.03;;
51578;SDS011;47998;53.242;6.386;2023-02-28T05:52:48;23.77;;;12.43;;
51578;SDS011;47998;53.242;6.386;2023-02-28T05:55:15;25.00;;;13.07;;
51578;SDS011;47998;53.242;6.386;2023-02-28T05:57:41;24.53;;;12.57;;
51578;SDS011;47998;53.242;6.386;2023-02-28T06:00:07;21.40;;;12.20;;
51578;SDS011;47998;53.242;6.386;2023-02-28T06:02:34;26.67;;;13.00;;
51578;SDS011;47998;53.242;6.386;2023-02-28T06:05:00;25.20;;;12.83;;
51578;SDS011;47998;53.242;6.386;2023-02-28T06:07:25;26.37;;;13.07;;
51578;SDS011;47998;53.242;6.386;2023-02-28T06:09:51;26.70;;;13.40;;
51578;SDS011;47998;53.242;6.386;2023-02-28T06:12:17;25.50;;;12.95;;
51578;SDS011;47998;53.242;6.386;2023-02-28T06:14:43;28.60;;;15.07;;
51578;SDS011;47998;53.242;6.386;2023-02-28T06:17:09;30.23;;;15.20;;
51578;SDS011;47998;53.242;6.386;2023-02-28T06:19:36;28.17;;;14.53;;
51578;SDS011;47998;53.242;6.386;2023-02-28T06:22:04;29.53;;;15.07;;
51578;SDS011;47998;53.242;6.386;2023-02-28T06:24:30;33.57;;;15.97;;
51578;SDS011;47998;53.242;6.386;2023-02-28T06:26:56;29.97;;;15.27;;
51578;SDS011;47998;53.242;6.386;2023-02-28T06:31:59;33.27;;;15.40;;
51578;SDS011;47998;53.242;6.386;2023-02-28T06:34:26;33.77;;;16.07;;
51578;SDS011;47998;53.242;6.386;2023-02-28T06:36:52;31.63;;;15.70;;
51578;SDS011;47998;53.242;6.386;2023-02-28T06:39:18;31.17;;;16.63;;
51578;SDS011;47998;53.242;6.386;2023-02-28T06:41:44;36.30;;;17.60;;
51578;SDS011;47998;53.242;6.386;2023-02-28T06:44:16;29.70;;;17.33;;
51578;SDS011;47998;53.242;6.386;2023-02-28T06:46:43;32.13;;;17.70;;
51578;SDS011;47998;53.242;6.386;2023-02-28T06:49:10;28.97;;;16.53;;
51578;SDS011;47998;53.242;6.386;2023-02-28T06:51:37;32.03;;;17.60;;
51578;SDS011;47998;53.242;6.386;2023-02-28T06:54:06;31.73;;;17.87;;
51578;SDS011;47998;53.242;6.386;2023-02-28T06:56:36;29.90;;;16.97;;
51578;SDS011;47998;53.242;6.386;2023-02-28T06:59:02;29.80;;;16.40;;
51578;SDS011;47998;53.242;6.386;2023-02-28T07:01:29;32.93;;;17.03;;
51578;SDS011;47998;53.242;6.386;2023-02-28T07:03:57;36.63;;;18.83;;
51578;SDS011;47998;53.242;6.386;2023-02-28T07:06:23;36.47;;;18.57;;
51578;SDS011;47998;53.242;6.386;2023-02-28T07:08:50;32.67;;;18.63;;
51578;SDS011;47998;53.242;6.386;2023-02-28T07:11:17;32.57;;;18.23;;
51578;SDS011;47998;53.242;6.386;2023-02-28T07:13:44;35.70;;;19.00;;
51578;SDS011;47998;53.242;6.386;2023-02-28T07:16:10;31.17;;;18.07;;
51578;SDS011;47998;53.242;6.386;2023-02-28T07:18:37;38.57;;;19.23;;
51578;SDS011;47998;53.242;6.386;2023-02-28T07:21:03;34.53;;;18.87;;
51578;SDS011;47998;53.242;6.386;2023-02-28T07:23:31;38.10;;;18.93;;
51578;SDS011;47998;53.242;6.386;2023-02-28T07:25:57;38.27;;;18.80;;
51578;SDS011;47998;53.242;6.386;2023-02-28T07:28:23;38.27;;;20.57;;
51578;SDS011;47998;53.242;6.386;2023-02-28T07:30:49;34.17;;;18.60;;
51578;SDS011;47998;53.242;6.386;2023-02-28T07:33:14;41.40;;;19.83;;
51578;SDS011;47998;53.242;6.386;2023-02-28T07:35:40;41.63;;;20.07;;
51578;SDS011;47998;53.242;6.386;2023-02-28T07:38:06;37.10;;;19.37;;
51578;SDS011;47998;53.242;6.386;2023-02-28T07:40:33;40.47;;;20.90;;
51578;SDS011;47998;53.242;6.386;2023-02-28T07:43:00;41.57;;;22.57;;
51578;SDS011;47998;53.242;6.386;2023-02-28T07:45:26;41.83;;;22.23;;
51578;SDS011;47998;53.242;6.386;2023-02-28T07:47:56;47.27;;;22.63;;
51578;SDS011;47998;53.242;6.386;2023-02-28T07:50:22;36.67;;;20.93;;
51578;SDS011;47998;53.242;6.386;2023-02-28T07:52:48;40.23;;;22.27;;
51578;SDS011;47998;53.242;6.386;2023-02-28T07:55:14;38.70;;;17.90;;
51578;SDS011;47998;53.242;6.386;2023-02-28T07:57:41;41.57;;;21.07;;
51578;SDS011;47998;53.242;6.386;2023-02-28T08:00:09;46.77;;;22.17;;
51578;SDS011;47998;53.242;6.386;2023-02-28T08:02:36;37.10;;;19.97;;
51578;SDS011;47998;53.242;6.386;2023-02-28T08:05:02;37.73;;;19.93;;
51578;SDS011;47998;53.242;6.386;2023-02-28T08:07:28;36.20;;;19.53;;
51578;SDS011;47998;53.242;6.386;2023-02-28T08:09:53;42.07;;;21.53;;
51578;SDS011;47998;53.242;6.386;2023-02-28T08:12:19;37.53;;;19.90;;
51578;SDS011;47998;53.242;6.386;2023-02-28T08:14:45;35.10;;;19.37;;
51578;SDS011;47998;53.242;6.386;2023-02-28T08:17:11;31.13;;;18.07;;
51578;SDS011;47998;53.242;6.386;2023-02-28T08:19:37;41.92;;;21.35;;
51578;SDS011;47998;53.242;6.386;2023-02-28T08:22:03;36.57;;;19.37;;
51578;SDS011;47998;53.242;6.386;2023-02-28T08:24:29;35.88;;;18.83;;
51578;SDS011;47998;53.242;6.386;2023-02-28T08:26:55;33.73;;;18.70;;
51578;SDS011;47998;53.242;6.386;2023-02-28T08:29:21;29.92;;;17.15;;
51578;SDS011;47998;53.242;6.386;2023-02-28T08:31:47;31.15;;;17.65;;
51578;SDS011;47998;53.242;6.386;2023-02-28T08:34:14;33.08;;;17.98;;
51578;SDS011;47998;53.242;6.386;2023-02-28T08:36:41;38.45;;;20.00;;
51578;SDS011;47998;53.242;6.386;2023-02-28T08:39:09;31.23;;;17.60;;
51578;SDS011;47998;53.242;6.386;2023-02-28T08:41:35;30.52;;;18.55;;
51578;SDS011;47998;53.242;6.386;2023-02-28T08:44:02;28.67;;;16.77;;
51578;SDS011;47998;53.242;6.386;2023-02-28T08:46:28;23.85;;;15.00;;
51578;SDS011;47998;53.242;6.386;2023-02-28T08:48:54;22.42;;;13.63;;
51578;SDS011;47998;53.242;6.386;2023-02-28T08:51:24;25.83;;;15.85;;
51578;SDS011;47998;53.242;6.386;2023-02-28T08:53:53;21.95;;;14.63;;
51578;SDS011;47998;53.242;6.386;2023-02-28T08:56:28;31.90;;;16.00;;
51578;SDS011;47998;53.242;6.386;2023-02-28T08:58:55;25.25;;;16.17;;
51578;SDS011;47998;53.242;6.386;2023-02-28T09:01:22;21.00;;;13.77;;
51578;SDS011;47998;53.242;6.386;2023-02-28T09:03:52;23.67;;;14.90;;
51578;SDS011;47998;53.242;6.386;2023-02-28T09:06:20;23.83;;;14.68;;
51578;SDS011;47998;53.242;6.386;2023-02-28T09:08:47;19.75;;;13.35;;
51578;SDS011;47998;53.242;6.386;2023-02-28T09:11:13;18.10;;;13.68;;
51578;SDS011;47998;53.242;6.386;2023-02-28T09:13:39;18.38;;;12.25;;
51578;SDS011;47998;53.242;6.386;2023-02-28T09:16:06;16.58;;;12.00;;
51578;SDS011;47998;53.242;6.386;2023-02-28T09:18:35;18.52;;;14.05;;
51578;SDS011;47998;53.242;6.386;2023-02-28T09:21:08;20.70;;;12.00;;
51578;SDS011;47998;53.242;6.386;2023-02-28T09:23:38;16.95;;;11.40;;
51578;SDS011;47998;53.242;6.386;2023-02-28T09:26:05;16.98;;;12.07;;
51578;SDS011;47998;53.242;6.386;2023-02-28T09:28:31;14.98;;;11.02;;
51578;SDS011;47998;53.242;6.386;2023-02-28T09:30:57;15.23;;;10.23;;
51578;SDS011;47998;53.242;6.386;2023-02-28T09:33:24;16.23;;;10.07;;
51578;SDS011;47998;53.242;6.386;2023-02-28T09:35:57;15.75;;;10.88;;
51578;SDS011;47998;53.242;6.386;2023-02-28T09:38:25;15.70;;;9.60;;
51578;SDS011;47998;53.242;6.386;2023-02-28T09:40:53;13.77;;;9.77;;
51578;SDS011;47998;53.242;6.386;2023-02-28T09:43:27;12.93;;;8.75;;
51578;SDS011;47998;53.242;6.386;2023-02-28T09:49:01;12.95;;;8.98;;
51578;SDS011;47998;53.242;6.386;2023-02-28T09:51:40;14.80;;;8.27;;
51578;SDS011;47998;53.242;6.386;2023-02-28T09:54:20;12.70;;;7.22;;
51578;SDS011;47998;53.242;6.386;2023-02-28T09:56:59;11.27;;;7.20;;
51578;SDS011;47998;53.242;6.386;2023-02-28T09:59:39;12.25;;;7.25;;
51578;SDS011;47998;53.242;6.386;2023-02-28T10:04:58;13.27;;;7.82;;
51578;SDS011;47998;53.242;6.386;2023-02-28T10:10:32;10.50;;;7.25;;
51578;SDS011;47998;53.242;6.386;2023-02-28T10:13:51;9.63;;;6.90;;
51578;SDS011;47998;53.242;6.386;2023-02-28T10:16:06;12.07;;;8.00;;
51578;SDS011;47998;53.242;6.386;2023-02-28T10:18:43;9.95;;;6.38;;
51578;SDS011;47998;53.242;6.386;2023-02-28T10:21:30;11.52;;;7.25;;
51578;SDS011;47998;53.242;6.386;2023-02-28T10:24:20;10.02;;;6.78;;
51578;SDS011;47998;53.242;6.386;2023-02-28T10:26:56;9.27;;;6.75;;
51578;SDS011;47998;53.242;6.386;2023-02-28T10:29:31;10.60;;;6.45;;
51578;SDS011;47998;53.242;6.386;2023-02-28T10:31:58;10.07;;;6.88;;
51578;SDS011;47998;53.242;6.386;2023-02-28T10:34:27;10.88;;;7.53;;
51578;SDS011;47998;53.242;6.386;2023-02-28T10:36:53;8.77;;;6.55;;
51578;SDS011;47998;53.242;6.386;2023-02-28T10:42:23;8.23;;;5.85;;
51578;SDS011;47998;53.242;6.386;2023-02-28T10:47:48;7.30;;;4.43;;
51578;SDS011;47998;53.242;6.386;2023-02-28T10:52:55;9.07;;;4.90;;
51578;SDS011;47998;53.242;6.386;2023-02-28T10:55:33;8.77;;;5.25;;
51578;SDS011;47998;53.242;6.386;2023-02-28T10:57:59;5.22;;;3.67;;
51578;SDS011;47998;53.242;6.386;2023-02-28T11:00:25;4.55;;;3.15;;
51578;SDS011;47998;53.242;6.386;2023-02-28T11:02:58;6.38;;;3.60;;
51578;SDS011;47998;53.242;6.386;2023-02-28T11:05:31;9.20;;;4.00;;
51578;SDS011;47998;53.242;6.386;2023-02-28T11:08:12;6.90;;;3.55;;
51578;SDS011;47998;53.242;6.386;2023-02-28T11:10:44;7.50;;;3.15;;
51578;SDS011;47998;53.242;6.386;2023-02-28T11:13:25;6.72;;;3.83;;
51578;SDS011;47998;53.242;6.386;2023-02-28T11:15:57;10.38;;;4.15;;
51578;SDS011;47998;53.242;6.386;2023-02-28T11:18:37;5.88;;;4.10;;
51578;SDS011;47998;53.242;6.386;2023-02-28T11:21:21;5.00;;;3.30;;
51578;SDS011;47998;53.242;6.386;2023-02-28T11:24:02;4.78;;;3.40;;
51578;SDS011;47998;53.242;6.386;2023-02-28T11:29:09;6.72;;;4.00;;
51578;SDS011;47998;53.242;6.386;2023-02-28T11:31:41;5.00;;;3.72;;
51578;SDS011;47998;53.242;6.386;2023-02-28T11:34:25;5.60;;;3.95;;
51578;SDS011;47998;53.242;6.386;2023-02-28T11:36:53;7.47;;;4.03;;
51578;SDS011;47998;53.242;6.386;2023-02-28T11:39:21;5.72;;;2.63;;
51578;SDS011;47998;53.242;6.386;2023-02-28T11:44:41;4.53;;;3.17;;
51578;SDS011;47998;53.242;6.386;2023-02-28T11:47:44;6.65;;;3.55;;
51578;SDS011;47998;53.242;6.386;2023-02-28T11:53:02;7.07;;;3.53;;
51578;SDS011;47998;53.242;6.386;2023-02-28T11:55:42;7.20;;;3.60;;
51578;SDS011;47998;53.242;6.386;2023-02-28T12:01:24;5.97;;;3.72;;
51578;SDS011;47998;53.242;6.386;2023-02-28T12:06:57;4.43;;;2.92;;
51578;SDS011;47998;53.242;6.386;2023-02-28T12:09:55;4.68;;;2.90;;
51578;SDS011;47998;53.242;6.386;2023-02-28T12:18:16;5.50;;;3.20;;
51578;SDS011;47998;53.242;6.386;2023-02-28T12:21:15;4.32;;;2.47;;
51578;SDS011;47998;53.242;6.386;2023-02-28T12:26:40;7.05;;;3.03;;
51578;SDS011;47998;53.242;6.386;2023-02-28T12:32:18;5.55;;;2.92;;
51578;SDS011;47998;53.242;6.386;2023-02-28T12:34:56;5.32;;;3.20;;
51578;SDS011;47998;53.242;6.386;2023-02-28T12:40:21;5.95;;;3.80;;
51578;SDS011;47998;53.242;6.386;2023-02-28T12:42:58;7.05;;;4.65;;
51578;SDS011;47998;53.242;6.386;2023-02-28T12:45:31;5.35;;;3.58;;
51578;SDS011;47998;53.242;6.386;2023-02-28T12:48:27;5.68;;;3.22;;
51578;SDS011;47998;53.242;6.386;2023-02-28T12:51:02;4.72;;;2.70;;
51578;SDS011;47998;53.242;6.386;2023-02-28T12:59:14;4.93;;;3.00;;
51578;SDS011;47998;53.242;6.386;2023-02-28T13:07:29;4.05;;;2.53;;
51578;SDS011;47998;53.242;6.386;2023-02-28T13:10:07;4.80;;;2.95;;
51578;SDS011;47998;53.242;6.386;2023-02-28T13:12:34;5.03;;;3.10;;
51578;SDS011;47998;53.242;6.386;2023-02-28T13:15:05;4.00;;;2.55;;
51578;SDS011;47998;53.242;6.386;2023-02-28T13:17:38;5.25;;;2.97;;
51578;SDS011;47998;53.242;6.386;2023-02-28T13:20:14;7.47;;;3.20;;
51578;SDS011;47998;53.242;6.386;2023-02-28T13:22:45;3.80;;;2.47;;
51578;SDS011;47998;53.242;6.386;2023-02-28T13:27:48;4.85;;;2.72;;
51578;SDS011;47998;53.242;6.386;2023-02-28T13:33:26;4.80;;;3.10;;
51578;SDS011;47998;53.242;6.386;2023-02-28T13:36:06;6.07;;;3.30;;
51578;SDS011;47998;53.242;6.386;2023-02-28T13:38:36;5.63;;;3.05;;
51578;SDS011;47998;53.242;6.386;2023-02-28T13:46:31;8.70;;;3.17;;
51578;SDS011;47998;53.242;6.386;2023-02-28T13:52:07;5.20;;;2.58;;
51578;SDS011;47998;53.242;6.386;2023-02-28T13:57:44;4.95;;;3.13;;
51578;SDS011;47998;53.242;6.386;2023-02-28T14:06:23;5.03;;;3.80;;
51578;SDS011;47998;53.242;6.386;2023-02-28T14:08:55;4.38;;;2.90;;
51578;SDS011;47998;53.242;6.386;2023-02-28T14:11:27;5.30;;;3.83;;
51578;SDS011;47998;53.242;6.386;2023-02-28T14:13:58;7.20;;;4.03;;
51578;SDS011;47998;53.242;6.386;2023-02-28T14:16:26;5.60;;;3.50;;
51578;SDS011;47998;53.242;6.386;2023-02-28T14:19:43;5.45;;;3.88;;
51578;SDS011;47998;53.242;6.386;2023-02-28T14:21:58;5.47;;;4.20;;
51578;SDS011;47998;53.242;6.386;2023-02-28T14:37:44;7.35;;;4.13;;
51578;SDS011;47998;53.242;6.386;2023-02-28T14:40:15;7.93;;;3.75;;
51578;SDS011;47998;53.242;6.386;2023-02-28T14:42:49;8.00;;;4.38;;
51578;SDS011;47998;53.242;6.386;2023-02-28T14:45:24;6.60;;;4.00;;
51578;SDS011;47998;53.242;6.386;2023-02-28T14:47:57;6.57;;;3.78;;
51578;SDS011;47998;53.242;6.386;2023-02-28T14:50:26;6.70;;;3.83;;
51578;SDS011;47998;53.242;6.386;2023-02-28T14:52:58;7.47;;;4.38;;
51578;SDS011;47998;53.242;6.386;2023-02-28T14:55:29;6.40;;;4.30;;
51578;SDS011;47998;53.242;6.386;2023-02-28T14:57:57;6.90;;;4.32;;
51578;SDS011;47998;53.242;6.386;2023-02-28T15:00:31;8.43;;;4.22;;
51578;SDS011;47998;53.242;6.386;2023-02-28T15:02:59;7.28;;;3.72;;
51578;SDS011;47998;53.242;6.386;2023-02-28T15:05:33;9.18;;;4.18;;
51578;SDS011;47998;53.242;6.386;2023-02-28T15:08:12;6.13;;;4.05;;
51578;SDS011;47998;53.242;6.386;2023-02-28T15:10:52;6.07;;;4.17;;
51578;SDS011;47998;53.242;6.386;2023-02-28T15:19:02;7.97;;;4.63;;
51578;SDS011;47998;53.242;6.386;2023-02-28T15:21:50;6.18;;;4.40;;
51578;SDS011;47998;53.242;6.386;2023-02-28T15:24:30;9.43;;;4.75;;
51578;SDS011;47998;53.242;6.386;2023-02-28T15:27:04;8.32;;;4.97;;
51578;SDS011;47998;53.242;6.386;2023-02-28T15:29:56;6.03;;;4.38;;
51578;SDS011;47998;53.242;6.386;2023-02-28T15:32:32;5.15;;;3.83;;
51578;SDS011;47998;53.242;6.386;2023-02-28T15:35:25;7.72;;;4.50;;
51578;SDS011;47998;53.242;6.386;2023-02-28T15:40:38;8.00;;;5.30;;
51578;SDS011;47998;53.242;6.386;2023-02-28T15:45:43;6.97;;;5.47;;
51578;SDS011;47998;53.242;6.386;2023-02-28T15:48:54;12.48;;;5.32;;
51578;SDS011;47998;53.242;6.386;2023-02-28T15:51:26;11.00;;;5.32;;
51578;SDS011;47998;53.242;6.386;2023-02-28T15:53:59;8.38;;;5.53;;
51578;SDS011;47998;53.242;6.386;2023-02-28T15:56:28;8.13;;;5.18;;
51578;SDS011;47998;53.242;6.386;2023-02-28T15:58:58;8.25;;;4.93;;
51578;SDS011;47998;53.242;6.386;2023-02-28T16:01:31;10.75;;;4.88;;
51578;SDS011;47998;53.242;6.386;2023-02-28T16:04:03;7.72;;;4.88;;
51578;SDS011;47998;53.242;6.386;2023-02-28T16:06:36;7.88;;;5.03;;
51578;SDS011;47998;53.242;6.386;2023-02-28T16:09:04;8.65;;;4.65;;
51578;SDS011;47998;53.242;6.386;2023-02-28T16:11:33;7.88;;;4.85;;
51578;SDS011;47998;53.242;6.386;2023-02-28T16:14:03;7.75;;;5.50;;
51578;SDS011;47998;53.242;6.386;2023-02-28T16:16:30;7.82;;;5.25;;
51578;SDS011;47998;53.242;6.386;2023-02-28T16:18:57;9.82;;;5.13;;
51578;SDS011;47998;53.242;6.386;2023-02-28T16:21:24;9.82;;;5.40;;
51578;SDS011;47998;53.242;6.386;2023-02-28T16:23:50;7.00;;;4.85;;
51578;SDS011;47998;53.242;6.386;2023-02-28T16:26:25;8.18;;;5.22;;
51578;SDS011;47998;53.242;6.386;2023-02-28T16:28:52;9.23;;;5.47;;
51578;SDS011;47998;53.242;6.386;2023-02-28T16:31:18;10.20;;;5.55;;
51578;SDS011;47998;53.242;6.386;2023-02-28T16:33:45;10.45;;;5.90;;
51578;SDS011;47998;53.242;6.386;2023-02-28T16:36:16;10.20;;;5.05;;
51578;SDS011;47998;53.242;6.386;2023-02-28T16:38:43;6.47;;;4.75;;
51578;SDS011;47998;53.242;6.386;2023-02-28T16:41:11;7.82;;;5.60;;
51578;SDS011;47998;53.242;6.386;2023-02-28T16:43:44;9.55;;;5.22;;
51578;SDS011;47998;53.242;6.386;2023-02-28T16:46:12;6.97;;;5.07;;
51578;SDS011;47998;53.242;6.386;2023-02-28T16:48:38;9.10;;;5.75;;
51578;SDS011;47998;53.242;6.386;2023-02-28T16:51:06;10.13;;;5.47;;
51578;SDS011;47998;53.242;6.386;2023-02-28T16:53:39;11.40;;;6.68;;
51578;SDS011;47998;53.242;6.386;2023-02-28T16:56:05;9.68;;;5.45;;
51578;SDS011;47998;53.242;6.386;2023-02-28T16:58:32;11.15;;;5.80;;
51578;SDS011;47998;53.242;6.386;2023-02-28T17:01:01;9.32;;;5.60;;
51578;SDS011;47998;53.242;6.386;2023-02-28T17:03:30;9.98;;;5.85;;
51578;SDS011;47998;53.242;6.386;2023-02-28T17:05:56;10.95;;;5.75;;
51578;SDS011;47998;53.242;6.386;2023-02-28T17:08:22;11.90;;;6.32;;
51578;SDS011;47998;53.242;6.386;2023-02-28T17:10:47;8.85;;;6.32;;
51578;SDS011;47998;53.242;6.386;2023-02-28T17:13:13;11.20;;;6.78;;
51578;SDS011;47998;53.242;6.386;2023-02-28T17:15:39;10.07;;;6.93;;
51578;SDS011;47998;53.242;6.386;2023-02-28T17:18:06;10.32;;;7.07;;
51578;SDS011;47998;53.242;6.386;2023-02-28T17:20:34;10.80;;;7.20;;
51578;SDS011;47998;53.242;6.386;2023-02-28T17:23:00;11.40;;;7.85;;